sensor_id;sensor_type;location;lat;lon;timestamp;P1;durP1;ratioP1;P2;durP2;ratioP2
62711;SDS011;48772;55.586;37.730;2022-09-16T00:00:06;18.92;;;11.93;;
62711;SDS011;48772;55.586;37.730;2022-09-16T00:02:33;19.13;;;11.90;;
62711;SDS011;48772;55.586;37.730;2022-09-16T00:04:58;14.77;;;10.40;;
62711;SDS011;48772;55.586;37.730;2022-09-16T00:07:24;16.50;;;11.18;;
62711;SDS011;48772;55.586;37.730;2022-09-16T00:09:50;19.08;;;10.50;;
62711;SDS011;48772;55.586;37.730;2022-09-16T00:12:15;16.98;;;11.60;;
62711;SDS011;48772;55.586;37.730;2022-09-16T00:14:41;9.77;;;7.32;;
62711;SDS011;48772;55.586;37.730;2022-09-16T00:17:06;15.10;;;9.15;;
62711;SDS011;48772;55.586;37.730;2022-09-16T00:19:32;15.25;;;10.05;;
62711;SDS011;48772;55.586;37.730;2022-09-16T00:21:58;18.52;;;11.00;;
62711;SDS011;48772;55.586;37.730;2022-09-16T00:24:23;15.85;;;9.43;;
62711;SDS011;48772;55.586;37.730;2022-09-16T00:26:49;17.25;;;11.13;;
62711;SDS011;48772;55.586;37.730;2022-09-16T00:29:14;18.30;;;10.65;;
62711;SDS011;48772;55.586;37.730;2022-09-16T00:31:40;15.00;;;10.45;;
62711;SDS011;48772;55.586;37.730;2022-09-16T00:34:05;12.63;;;7.68;;
62711;SDS011;48772;55.586;37.730;2022-09-16T00:36:31;15.77;;;11.05;;
62711;SDS011;48772;55.586;37.730;2022-09-16T00:38:56;14.65;;;10.27;;
62711;SDS011;48772;55.586;37.730;2022-09-16T00:41:26;18.23;;;10.55;;
62711;SDS011;48772;55.586;37.730;2022-09-16T00:43:57;19.85;;;10.68;;
62711;SDS011;48772;55.586;37.730;2022-09-16T00:46:37;16.42;;;11.00;;
62711;SDS011;48772;55.586;37.730;2022-09-16T00:49:05;15.73;;;10.40;;
62711;SDS011;48772;55.586;37.730;2022-09-16T00:51:33;17.60;;;11.15;;
62711;SDS011;48772;55.586;37.730;2022-09-16T00:53:59;15.85;;;11.50;;
62711;SDS011;48772;55.586;37.730;2022-09-16T00:56:27;18.13;;;12.10;;
62711;SDS011;48772;55.586;37.730;2022-09-16T01:01:26;16.27;;;11.55;;
62711;SDS011;48772;55.586;37.730;2022-09-16T01:03:53;18.05;;;10.63;;
62711;SDS011;48772;55.586;37.730;2022-09-16T01:06:19;20.73;;;11.27;;
62711;SDS011;48772;55.586;37.730;2022-09-16T01:08:45;15.35;;;10.50;;
62711;SDS011;48772;55.586;37.730;2022-09-16T01:11:13;18.95;;;11.05;;
62711;SDS011;48772;55.586;37.730;2022-09-16T01:13:39;20.73;;;11.52;;
62711;SDS011;48772;55.586;37.730;2022-09-16T01:34:08;21.15;;;9.93;;
62711;SDS011;48772;55.586;37.730;2022-09-16T01:36:40;18.70;;;11.32;;
62711;SDS011;48772;55.586;37.730;2022-09-16T01:54:38;22.52;;;11.25;;
62711;SDS011;48772;55.586;37.730;2022-09-16T01:57:07;24.35;;;11.65;;
62711;SDS011;48772;55.586;37.730;2022-09-16T01:59:43;27.83;;;10.77;;
62711;SDS011;48772;55.586;37.730;2022-09-16T02:04:59;35.17;;;12.77;;
62711;SDS011;48772;55.586;37.730;2022-09-16T02:07:30;24.85;;;11.90;;
62711;SDS011;48772;55.586;37.730;2022-09-16T02:09:57;22.40;;;12.43;;
62711;SDS011;48772;55.586;37.730;2022-09-16T02:12:26;27.50;;;12.18;;
62711;SDS011;48772;55.586;37.730;2022-09-16T02:14:54;20.25;;;11.77;;
62711;SDS011;48772;55.586;37.730;2022-09-16T02:17:22;23.05;;;12.43;;
62711;SDS011;48772;55.586;37.730;2022-09-16T02:19:50;15.85;;;9.15;;
62711;SDS011;48772;55.586;37.730;2022-09-16T02:22:26;23.95;;;11.82;;
62711;SDS011;48772;55.586;37.730;2022-09-16T02:24:54;24.23;;;11.27;;
62711;SDS011;48772;55.586;37.730;2022-09-16T02:27:20;12.93;;;8.10;;
62711;SDS011;48772;55.586;37.730;2022-09-16T02:29:51;28.30;;;12.23;;
62711;SDS011;48772;55.586;37.730;2022-09-16T02:32:18;20.77;;;10.48;;
62711;SDS011;48772;55.586;37.730;2022-09-16T02:34:48;16.92;;;10.68;;
62711;SDS011;48772;55.586;37.730;2022-09-16T02:37:17;17.67;;;10.27;;
62711;SDS011;48772;55.586;37.730;2022-09-16T02:39:43;18.38;;;8.80;;
62711;SDS011;48772;55.586;37.730;2022-09-16T02:42:10;17.90;;;10.88;;
62711;SDS011;48772;55.586;37.730;2022-09-16T02:44:36;10.45;;;7.20;;
62711;SDS011;48772;55.586;37.730;2022-09-16T02:47:12;19.85;;;10.38;;
62711;SDS011;48772;55.586;37.730;2022-09-16T02:49:42;16.58;;;10.07;;
62711;SDS011;48772;55.586;37.730;2022-09-16T02:55:00;12.85;;;8.80;;
62711;SDS011;48772;55.586;37.730;2022-09-16T02:57:28;16.15;;;9.23;;
62711;SDS011;48772;55.586;37.730;2022-09-16T02:59:54;20.23;;;10.20;;
62711;SDS011;48772;55.586;37.730;2022-09-16T03:02:20;15.07;;;9.50;;
62711;SDS011;48772;55.586;37.730;2022-09-16T03:04:46;14.07;;;8.82;;
62711;SDS011;48772;55.586;37.730;2022-09-16T03:07:12;15.77;;;10.35;;
62711;SDS011;48772;55.586;37.730;2022-09-16T03:09:40;16.17;;;9.07;;
62711;SDS011;48772;55.586;37.730;2022-09-16T03:12:18;11.35;;;7.05;;
62711;SDS011;48772;55.586;37.730;2022-09-16T03:15:03;15.45;;;10.18;;
62711;SDS011;48772;55.586;37.730;2022-09-16T03:17:36;13.60;;;8.43;;
62711;SDS011;48772;55.586;37.730;2022-09-16T03:20:12;17.60;;;10.80;;
62711;SDS011;48772;55.586;37.730;2022-09-16T03:22:51;15.10;;;9.95;;
62711;SDS011;48772;55.586;37.730;2022-09-16T03:25:43;18.55;;;10.23;;
62711;SDS011;48772;55.586;37.730;2022-09-16T03:30:34;16.17;;;9.43;;
62711;SDS011;48772;55.586;37.730;2022-09-16T03:33:09;14.15;;;10.38;;
62711;SDS011;48772;55.586;37.730;2022-09-16T03:35:39;14.82;;;10.60;;
62711;SDS011;48772;55.586;37.730;2022-09-16T03:38:06;16.63;;;10.93;;
62711;SDS011;48772;55.586;37.730;2022-09-16T03:40:33;16.48;;;9.93;;
62711;SDS011;48772;55.586;37.730;2022-09-16T03:42:58;17.42;;;10.80;;
62711;SDS011;48772;55.586;37.730;2022-09-16T03:45:24;15.45;;;11.00;;
62711;SDS011;48772;55.586;37.730;2022-09-16T03:47:51;11.75;;;7.85;;
62711;SDS011;48772;55.586;37.730;2022-09-16T03:50:17;16.70;;;9.45;;
62711;SDS011;48772;55.586;37.730;2022-09-16T03:52:43;16.73;;;10.18;;
62711;SDS011;48772;55.586;37.730;2022-09-16T03:55:09;10.63;;;7.10;;
62711;SDS011;48772;55.586;37.730;2022-09-16T03:57:38;17.70;;;10.90;;
62711;SDS011;48772;55.586;37.730;2022-09-16T04:00:04;14.60;;;9.77;;
62711;SDS011;48772;55.586;37.730;2022-09-16T04:02:37;12.93;;;8.40;;
62711;SDS011;48772;55.586;37.730;2022-09-16T04:05:05;20.85;;;11.00;;
62711;SDS011;48772;55.586;37.730;2022-09-16T04:07:32;20.67;;;9.77;;
62711;SDS011;48772;55.586;37.730;2022-09-16T04:09:58;20.27;;;11.00;;
62711;SDS011;48772;55.586;37.730;2022-09-16T04:12:24;18.83;;;10.40;;
62711;SDS011;48772;55.586;37.730;2022-09-16T04:14:49;12.90;;;8.13;;
62711;SDS011;48772;55.586;37.730;2022-09-16T04:17:15;15.10;;;8.38;;
62711;SDS011;48772;55.586;37.730;2022-09-16T04:19:41;16.90;;;11.00;;
62711;SDS011;48772;55.586;37.730;2022-09-16T04:22:06;16.98;;;9.05;;
62711;SDS011;48772;55.586;37.730;2022-09-16T04:24:32;17.15;;;10.73;;
62711;SDS011;48772;55.586;37.730;2022-09-16T04:26:57;17.05;;;9.98;;
62711;SDS011;48772;55.586;37.730;2022-09-16T04:29:23;17.67;;;9.75;;
62711;SDS011;48772;55.586;37.730;2022-09-16T04:31:49;15.13;;;10.18;;
62711;SDS011;48772;55.586;37.730;2022-09-16T04:34:14;13.23;;;10.30;;
62711;SDS011;48772;55.586;37.730;2022-09-16T04:36:40;13.25;;;9.25;;
62711;SDS011;48772;55.586;37.730;2022-09-16T04:39:06;11.13;;;8.90;;
62711;SDS011;48772;55.586;37.730;2022-09-16T04:41:31;13.27;;;10.10;;
62711;SDS011;48772;55.586;37.730;2022-09-16T04:43:58;16.38;;;10.55;;
62711;SDS011;48772;55.586;37.730;2022-09-16T04:46:24;19.05;;;11.10;;
62711;SDS011;48772;55.586;37.730;2022-09-16T04:48:51;15.10;;;10.63;;
62711;SDS011;48772;55.586;37.730;2022-09-16T04:51:17;17.17;;;10.48;;
62711;SDS011;48772;55.586;37.730;2022-09-16T04:53:44;17.52;;;10.48;;
62711;SDS011;48772;55.586;37.730;2022-09-16T04:56:11;17.30;;;11.52;;
62711;SDS011;48772;55.586;37.730;2022-09-16T04:58:43;14.88;;;11.00;;
62711;SDS011;48772;55.586;37.730;2022-09-16T05:01:11;16.95;;;10.38;;
62711;SDS011;48772;55.586;37.730;2022-09-16T05:03:38;18.00;;;10.82;;
62711;SDS011;48772;55.586;37.730;2022-09-16T05:06:05;12.98;;;8.73;;
62711;SDS011;48772;55.586;37.730;2022-09-16T05:08:31;14.32;;;10.30;;
62711;SDS011;48772;55.586;37.730;2022-09-16T05:11:06;16.90;;;11.38;;
62711;SDS011;48772;55.586;37.730;2022-09-16T05:13:32;16.05;;;10.63;;
62711;SDS011;48772;55.586;37.730;2022-09-16T05:16:08;18.02;;;9.63;;
62711;SDS011;48772;55.586;37.730;2022-09-16T05:18:35;16.20;;;11.18;;
62711;SDS011;48772;55.586;37.730;2022-09-16T05:21:02;13.52;;;7.82;;
62711;SDS011;48772;55.586;37.730;2022-09-16T05:23:28;20.65;;;10.93;;
62711;SDS011;48772;55.586;37.730;2022-09-16T05:25:53;11.18;;;7.50;;
62711;SDS011;48772;55.586;37.730;2022-09-16T05:28:20;17.10;;;10.65;;
62711;SDS011;48772;55.586;37.730;2022-09-16T05:30:46;21.38;;;12.30;;
62711;SDS011;48772;55.586;37.730;2022-09-16T05:33:12;18.27;;;10.48;;
62711;SDS011;48772;55.586;37.730;2022-09-16T05:35:37;17.23;;;11.98;;
62711;SDS011;48772;55.586;37.730;2022-09-16T05:38:03;20.35;;;12.05;;
62711;SDS011;48772;55.586;37.730;2022-09-16T05:40:29;17.55;;;11.60;;
62711;SDS011;48772;55.586;37.730;2022-09-16T05:42:54;17.10;;;11.85;;
62711;SDS011;48772;55.586;37.730;2022-09-16T05:45:20;16.23;;;10.05;;
62711;SDS011;48772;55.586;37.730;2022-09-16T05:47:47;16.65;;;9.32;;
62711;SDS011;48772;55.586;37.730;2022-09-16T05:50:12;21.25;;;12.23;;
62711;SDS011;48772;55.586;37.730;2022-09-16T05:52:38;19.98;;;11.93;;
62711;SDS011;48772;55.586;37.730;2022-09-16T05:55:03;12.15;;;8.13;;
62711;SDS011;48772;55.586;37.730;2022-09-16T05:57:29;15.70;;;11.00;;
62711;SDS011;48772;55.586;37.730;2022-09-16T05:59:55;21.30;;;12.43;;
62711;SDS011;48772;55.586;37.730;2022-09-16T06:02:21;19.98;;;11.73;;
62711;SDS011;48772;55.586;37.730;2022-09-16T06:04:46;19.83;;;11.32;;
62711;SDS011;48772;55.586;37.730;2022-09-16T06:07:12;18.20;;;12.65;;
62711;SDS011;48772;55.586;37.730;2022-09-16T06:09:38;13.65;;;9.63;;
62711;SDS011;48772;55.586;37.730;2022-09-16T06:12:03;19.08;;;12.07;;
62711;SDS011;48772;55.586;37.730;2022-09-16T06:14:29;17.30;;;11.77;;
62711;SDS011;48772;55.586;37.730;2022-09-16T06:16:55;22.65;;;12.82;;
62711;SDS011;48772;55.586;37.730;2022-09-16T06:19:21;20.10;;;10.88;;
62711;SDS011;48772;55.586;37.730;2022-09-16T06:21:47;23.45;;;12.07;;
62711;SDS011;48772;55.586;37.730;2022-09-16T06:24:13;16.48;;;10.60;;
62711;SDS011;48772;55.586;37.730;2022-09-16T06:26:40;21.00;;;12.20;;
62711;SDS011;48772;55.586;37.730;2022-09-16T06:29:07;17.08;;;11.63;;
62711;SDS011;48772;55.586;37.730;2022-09-16T06:31:33;19.20;;;12.40;;
62711;SDS011;48772;55.586;37.730;2022-09-16T06:33:59;23.38;;;9.73;;
62711;SDS011;48772;55.586;37.730;2022-09-16T06:36:30;15.15;;;10.18;;
62711;SDS011;48772;55.586;37.730;2022-09-16T06:38:56;13.57;;;9.07;;
62711;SDS011;48772;55.586;37.730;2022-09-16T06:41:22;16.23;;;10.98;;
62711;SDS011;48772;55.586;37.730;2022-09-16T06:43:48;17.88;;;11.35;;
62711;SDS011;48772;55.586;37.730;2022-09-16T06:46:16;16.60;;;11.68;;
62711;SDS011;48772;55.586;37.730;2022-09-16T06:48:44;13.63;;;10.00;;
62711;SDS011;48772;55.586;37.730;2022-09-16T06:51:11;27.52;;;12.73;;
62711;SDS011;48772;55.586;37.730;2022-09-16T06:53:37;19.55;;;10.52;;
62711;SDS011;48772;55.586;37.730;2022-09-16T06:56:04;16.92;;;10.48;;
62711;SDS011;48772;55.586;37.730;2022-09-16T06:58:33;19.10;;;11.30;;
62711;SDS011;48772;55.586;37.730;2022-09-16T07:01:06;19.48;;;12.07;;
62711;SDS011;48772;55.586;37.730;2022-09-16T07:03:32;19.10;;;11.32;;
62711;SDS011;48772;55.586;37.730;2022-09-16T07:05:59;15.90;;;10.35;;
62711;SDS011;48772;55.586;37.730;2022-09-16T07:08:32;13.30;;;8.57;;
62711;SDS011;48772;55.586;37.730;2022-09-16T07:11:00;12.60;;;7.10;;
62711;SDS011;48772;55.586;37.730;2022-09-16T07:13:26;13.38;;;9.38;;
62711;SDS011;48772;55.586;37.730;2022-09-16T07:15:53;11.40;;;8.80;;
62711;SDS011;48772;55.586;37.730;2022-09-16T07:18:19;11.90;;;8.20;;
62711;SDS011;48772;55.586;37.730;2022-09-16T07:20:45;12.98;;;9.18;;
62711;SDS011;48772;55.586;37.730;2022-09-16T07:23:11;15.45;;;8.65;;
62711;SDS011;48772;55.586;37.730;2022-09-16T07:25:36;13.35;;;8.52;;
62711;SDS011;48772;55.586;37.730;2022-09-16T07:28:02;14.27;;;8.20;;
62711;SDS011;48772;55.586;37.730;2022-09-16T07:30:28;11.98;;;9.80;;
62711;SDS011;48772;55.586;37.730;2022-09-16T07:32:55;17.38;;;7.65;;
62711;SDS011;48772;55.586;37.730;2022-09-16T07:35:21;15.15;;;9.65;;
62711;SDS011;48772;55.586;37.730;2022-09-16T07:37:47;17.15;;;10.02;;
62711;SDS011;48772;55.586;37.730;2022-09-16T07:40:14;11.75;;;9.32;;
62711;SDS011;48772;55.586;37.730;2022-09-16T07:42:39;11.98;;;8.80;;
62711;SDS011;48772;55.586;37.730;2022-09-16T07:45:07;12.68;;;8.38;;
62711;SDS011;48772;55.586;37.730;2022-09-16T07:47:33;12.18;;;9.10;;
62711;SDS011;48772;55.586;37.730;2022-09-16T07:49:59;11.05;;;8.60;;
62711;SDS011;48772;55.586;37.730;2022-09-16T07:52:25;11.55;;;7.68;;
62711;SDS011;48772;55.586;37.730;2022-09-16T07:54:57;14.73;;;9.38;;
62711;SDS011;48772;55.586;37.730;2022-09-16T07:57:23;13.05;;;8.82;;
62711;SDS011;48772;55.586;37.730;2022-09-16T07:59:49;8.50;;;6.82;;
62711;SDS011;48772;55.586;37.730;2022-09-16T08:02:15;13.13;;;7.28;;
62711;SDS011;48772;55.586;37.730;2022-09-16T08:04:41;9.13;;;5.53;;
62711;SDS011;48772;55.586;37.730;2022-09-16T08:07:07;9.40;;;5.95;;
62711;SDS011;48772;55.586;37.730;2022-09-16T08:09:35;9.75;;;6.97;;
62711;SDS011;48772;55.586;37.730;2022-09-16T08:12:03;10.70;;;7.50;;
62711;SDS011;48772;55.586;37.730;2022-09-16T08:14:29;9.57;;;8.30;;
62711;SDS011;48772;55.586;37.730;2022-09-16T08:16:56;8.90;;;7.13;;
62711;SDS011;48772;55.586;37.730;2022-09-16T08:19:22;8.90;;;5.65;;
62711;SDS011;48772;55.586;37.730;2022-09-16T08:21:48;9.57;;;7.57;;
62711;SDS011;48772;55.586;37.730;2022-09-16T08:24:14;18.20;;;8.20;;
62711;SDS011;48772;55.586;37.730;2022-09-16T08:26:40;11.88;;;7.57;;
62711;SDS011;48772;55.586;37.730;2022-09-16T08:29:08;9.85;;;7.38;;
62711;SDS011;48772;55.586;37.730;2022-09-16T08:31:34;13.45;;;8.00;;
62711;SDS011;48772;55.586;37.730;2022-09-16T08:34:00;10.30;;;8.48;;
62711;SDS011;48772;55.586;37.730;2022-09-16T08:36:26;10.05;;;7.50;;
62711;SDS011;48772;55.586;37.730;2022-09-16T08:38:58;9.50;;;6.85;;
62711;SDS011;48772;55.586;37.730;2022-09-16T08:46:37;12.13;;;8.45;;
62711;SDS011;48772;55.586;37.730;2022-09-16T08:49:08;14.90;;;8.45;;
62711;SDS011;48772;55.586;37.730;2022-09-16T08:51:38;12.75;;;7.88;;
62711;SDS011;48772;55.586;37.730;2022-09-16T08:54:17;14.65;;;8.20;;
62711;SDS011;48772;55.586;37.730;2022-09-16T08:56:47;14.70;;;8.95;;
62711;SDS011;48772;55.586;37.730;2022-09-16T08:59:16;13.82;;;8.43;;
62711;SDS011;48772;55.586;37.730;2022-09-16T09:04:28;12.73;;;8.13;;
62711;SDS011;48772;55.586;37.730;2022-09-16T09:07:08;9.35;;;6.55;;
62711;SDS011;48772;55.586;37.730;2022-09-16T09:12:11;12.32;;;8.75;;
62711;SDS011;48772;55.586;37.730;2022-09-16T09:14:59;9.93;;;6.70;;
62711;SDS011;48772;55.586;37.730;2022-09-16T09:19:56;10.23;;;6.57;;
62711;SDS011;48772;55.586;37.730;2022-09-16T09:30:20;8.35;;;6.40;;
62711;SDS011;48772;55.586;37.730;2022-09-16T09:35:36;8.07;;;4.70;;
62711;SDS011;48772;55.586;37.730;2022-09-16T09:40:50;5.25;;;4.10;;
62711;SDS011;48772;55.586;37.730;2022-09-16T09:43:24;7.55;;;3.95;;
62711;SDS011;48772;55.586;37.730;2022-09-16T09:46:09;7.28;;;5.50;;
62711;SDS011;48772;55.586;37.730;2022-09-16T09:48:44;11.93;;;6.78;;
62711;SDS011;48772;55.586;37.730;2022-09-16T09:51:32;8.77;;;6.65;;
62711;SDS011;48772;55.586;37.730;2022-09-16T09:54:47;7.40;;;4.93;;
62711;SDS011;48772;55.586;37.730;2022-09-16T09:56:46;5.75;;;4.35;;
62711;SDS011;48772;55.586;37.730;2022-09-16T10:01:38;7.78;;;5.00;;
62711;SDS011;48772;55.586;37.730;2022-09-16T10:04:09;7.18;;;4.63;;
62711;SDS011;48772;55.586;37.730;2022-09-16T10:06:37;7.95;;;5.35;;
62711;SDS011;48772;55.586;37.730;2022-09-16T10:09:03;9.65;;;4.80;;
62711;SDS011;48772;55.586;37.730;2022-09-16T10:11:30;9.80;;;4.80;;
62711;SDS011;48772;55.586;37.730;2022-09-16T10:13:58;9.27;;;5.70;;
62711;SDS011;48772;55.586;37.730;2022-09-16T10:16:25;7.97;;;4.75;;
62711;SDS011;48772;55.586;37.730;2022-09-16T10:19:05;6.82;;;4.68;;
62711;SDS011;48772;55.586;37.730;2022-09-16T10:21:45;10.65;;;4.60;;
62711;SDS011;48772;55.586;37.730;2022-09-16T10:24:28;8.30;;;5.77;;
62711;SDS011;48772;55.586;37.730;2022-09-16T10:26:58;9.37;;;5.00;;
62711;SDS011;48772;55.586;37.730;2022-09-16T10:29:25;5.07;;;4.45;;
62711;SDS011;48772;55.586;37.730;2022-09-16T10:31:52;11.73;;;5.47;;
62711;SDS011;48772;55.586;37.730;2022-09-16T10:34:24;14.48;;;5.63;;
62711;SDS011;48772;55.586;37.730;2022-09-16T10:37:02;5.45;;;4.13;;
62711;SDS011;48772;55.586;37.730;2022-09-16T10:39:29;6.05;;;4.70;;
62711;SDS011;48772;55.586;37.730;2022-09-16T10:41:56;9.88;;;4.95;;
62711;SDS011;48772;55.586;37.730;2022-09-16T10:44:26;14.75;;;4.65;;
62711;SDS011;48772;55.586;37.730;2022-09-16T10:46:57;5.13;;;3.80;;
62711;SDS011;48772;55.586;37.730;2022-09-16T10:52:24;5.78;;;3.33;;
62711;SDS011;48772;55.586;37.730;2022-09-16T10:54:50;12.10;;;4.28;;
62711;SDS011;48772;55.586;37.730;2022-09-16T10:57:29;7.45;;;4.78;;
62711;SDS011;48772;55.586;37.730;2022-09-16T10:59:59;6.55;;;4.53;;
62711;SDS011;48772;55.586;37.730;2022-09-16T11:05:12;8.82;;;4.78;;
62711;SDS011;48772;55.586;37.730;2022-09-16T11:07:49;7.57;;;4.97;;
62711;SDS011;48772;55.586;37.730;2022-09-16T11:15:43;11.68;;;7.28;;
62711;SDS011;48772;55.586;37.730;2022-09-16T11:26:13;14.70;;;7.03;;
62711;SDS011;48772;55.586;37.730;2022-09-16T11:36:36;6.40;;;4.57;;
62711;SDS011;48772;55.586;37.730;2022-09-16T11:39:10;10.15;;;7.32;;
62711;SDS011;48772;55.586;37.730;2022-09-16T11:44:20;13.65;;;5.97;;
62711;SDS011;48772;55.586;37.730;2022-09-16T11:57:03;8.98;;;5.95;;
62711;SDS011;48772;55.586;37.730;2022-09-16T12:04:43;6.57;;;4.57;;
62711;SDS011;48772;55.586;37.730;2022-09-16T12:07:28;9.90;;;4.65;;
62711;SDS011;48772;55.586;37.730;2022-09-16T12:12:22;8.77;;;3.58;;
62711;SDS011;48772;55.586;37.730;2022-09-16T12:14:53;6.43;;;4.25;;
62711;SDS011;48772;55.586;37.730;2022-09-16T12:17:22;7.70;;;4.47;;
62711;SDS011;48772;55.586;37.730;2022-09-16T12:19:51;7.20;;;4.07;;
62711;SDS011;48772;55.586;37.730;2022-09-16T12:22:22;7.82;;;4.07;;
62711;SDS011;48772;55.586;37.730;2022-09-16T12:27:34;7.45;;;5.13;;
62711;SDS011;48772;55.586;37.730;2022-09-16T12:30:07;7.90;;;5.80;;
62711;SDS011;48772;55.586;37.730;2022-09-16T12:35:32;10.82;;;6.25;;
62711;SDS011;48772;55.586;37.730;2022-09-16T12:37:58;10.45;;;6.18;;
62711;SDS011;48772;55.586;37.730;2022-09-16T12:40:28;10.10;;;5.65;;
62711;SDS011;48772;55.586;37.730;2022-09-16T12:53:30;9.65;;;6.30;;
62711;SDS011;48772;55.586;37.730;2022-09-16T13:01:31;12.85;;;5.68;;
62711;SDS011;48772;55.586;37.730;2022-09-16T13:04:02;11.52;;;6.30;;
62711;SDS011;48772;55.586;37.730;2022-09-16T13:06:29;8.20;;;5.43;;
62711;SDS011;48772;55.586;37.730;2022-09-16T13:08:55;9.43;;;5.80;;
62711;SDS011;48772;55.586;37.730;2022-09-16T13:11:24;10.77;;;6.05;;
62711;SDS011;48772;55.586;37.730;2022-09-16T13:13:55;7.78;;;4.70;;
62711;SDS011;48772;55.586;37.730;2022-09-16T13:16:29;12.15;;;5.32;;
62711;SDS011;48772;55.586;37.730;2022-09-16T13:21:47;9.68;;;4.85;;
62711;SDS011;48772;55.586;37.730;2022-09-16T13:26:44;10.15;;;4.75;;
62711;SDS011;48772;55.586;37.730;2022-09-16T13:29:24;7.45;;;4.55;;
62711;SDS011;48772;55.586;37.730;2022-09-16T13:31:50;6.53;;;3.63;;
62711;SDS011;48772;55.586;37.730;2022-09-16T13:34:16;10.57;;;5.88;;
62711;SDS011;48772;55.586;37.730;2022-09-16T13:36:42;11.63;;;6.07;;
62711;SDS011;48772;55.586;37.730;2022-09-16T13:39:11;8.02;;;4.53;;
62711;SDS011;48772;55.586;37.730;2022-09-16T13:46:47;7.75;;;5.18;;
62711;SDS011;48772;55.586;37.730;2022-09-16T13:49:22;11.30;;;6.82;;
62711;SDS011;48772;55.586;37.730;2022-09-16T13:51:50;6.22;;;4.38;;
62711;SDS011;48772;55.586;37.730;2022-09-16T13:56:48;8.98;;;4.63;;
62711;SDS011;48772;55.586;37.730;2022-09-16T13:59:36;8.00;;;4.88;;
62711;SDS011;48772;55.586;37.730;2022-09-16T14:07:07;8.57;;;4.55;;
62711;SDS011;48772;55.586;37.730;2022-09-16T14:09:45;6.50;;;5.00;;
62711;SDS011;48772;55.586;37.730;2022-09-16T14:12:22;8.32;;;4.72;;
62711;SDS011;48772;55.586;37.730;2022-09-16T14:14:50;9.57;;;5.10;;
62711;SDS011;48772;55.586;37.730;2022-09-16T14:17:20;11.73;;;4.90;;
62711;SDS011;48772;55.586;37.730;2022-09-16T14:19:47;9.90;;;5.38;;
62711;SDS011;48772;55.586;37.730;2022-09-16T14:22:20;9.02;;;5.10;;
62711;SDS011;48772;55.586;37.730;2022-09-16T14:24:47;6.65;;;4.85;;
62711;SDS011;48772;55.586;37.730;2022-09-16T14:29:58;13.30;;;6.18;;
62711;SDS011;48772;55.586;37.730;2022-09-16T14:32:24;8.98;;;5.60;;
62711;SDS011;48772;55.586;37.730;2022-09-16T14:34:51;6.35;;;5.07;;
62711;SDS011;48772;55.586;37.730;2022-09-16T14:37:17;10.02;;;5.80;;
62711;SDS011;48772;55.586;37.730;2022-09-16T14:39:44;9.48;;;6.10;;
62711;SDS011;48772;55.586;37.730;2022-09-16T14:42:13;7.28;;;5.80;;
62711;SDS011;48772;55.586;37.730;2022-09-16T14:44:50;9.10;;;5.82;;
62711;SDS011;48772;55.586;37.730;2022-09-16T14:49:43;11.43;;;7.20;;
62711;SDS011;48772;55.586;37.730;2022-09-16T14:52:18;7.57;;;4.80;;
62711;SDS011;48772;55.586;37.730;2022-09-16T14:54:45;10.32;;;6.22;;
62711;SDS011;48772;55.586;37.730;2022-09-16T14:57:29;8.50;;;5.78;;
62711;SDS011;48772;55.586;37.730;2022-09-16T14:59:56;9.02;;;5.68;;
62711;SDS011;48772;55.586;37.730;2022-09-16T15:02:24;9.60;;;6.55;;
62711;SDS011;48772;55.586;37.730;2022-09-16T15:04:58;9.30;;;5.47;;
62711;SDS011;48772;55.586;37.730;2022-09-16T15:07:29;5.90;;;4.32;;
62711;SDS011;48772;55.586;37.730;2022-09-16T15:12:24;10.32;;;7.15;;
62711;SDS011;48772;55.586;37.730;2022-09-16T15:14:51;10.05;;;6.05;;
62711;SDS011;48772;55.586;37.730;2022-09-16T15:17:18;10.02;;;5.32;;
62711;SDS011;48772;55.586;37.730;2022-09-16T15:19:47;15.70;;;5.18;;
62711;SDS011;48772;55.586;37.730;2022-09-16T15:22:14;8.00;;;5.25;;
62711;SDS011;48772;55.586;37.730;2022-09-16T15:24:40;12.05;;;7.30;;
62711;SDS011;48772;55.586;37.730;2022-09-16T15:27:06;9.10;;;4.90;;
62711;SDS011;48772;55.586;37.730;2022-09-16T15:29:33;7.30;;;5.40;;
62711;SDS011;48772;55.586;37.730;2022-09-16T15:32:20;9.98;;;6.60;;
62711;SDS011;48772;55.586;37.730;2022-09-16T15:34:47;9.68;;;6.60;;
62711;SDS011;48772;55.586;37.730;2022-09-16T15:37:32;9.05;;;6.05;;
62711;SDS011;48772;55.586;37.730;2022-09-16T15:40:07;10.98;;;7.65;;
62711;SDS011;48772;55.586;37.730;2022-09-16T15:42:33;10.93;;;8.35;;
62711;SDS011;48772;55.586;37.730;2022-09-16T15:45:00;8.90;;;6.60;;
62711;SDS011;48772;55.586;37.730;2022-09-16T15:47:37;8.15;;;5.78;;
62711;SDS011;48772;55.586;37.730;2022-09-16T15:50:06;10.63;;;6.40;;
62711;SDS011;48772;55.586;37.730;2022-09-16T15:52:48;10.10;;;7.97;;
62711;SDS011;48772;55.586;37.730;2022-09-16T15:56:19;10.27;;;6.90;;
62711;SDS011;48772;55.586;37.730;2022-09-16T16:00:53;10.23;;;5.90;;
62711;SDS011;48772;55.586;37.730;2022-09-16T16:03:21;16.58;;;9.13;;
62711;SDS011;48772;55.586;37.730;2022-09-16T16:05:50;13.38;;;8.32;;
62711;SDS011;48772;55.586;37.730;2022-09-16T16:08:36;10.32;;;5.97;;
62711;SDS011;48772;55.586;37.730;2022-09-16T16:11:06;15.88;;;8.95;;
62711;SDS011;48772;55.586;37.730;2022-09-16T16:13:32;13.07;;;9.98;;
62711;SDS011;48772;55.586;37.730;2022-09-16T16:15:58;15.75;;;8.32;;
62711;SDS011;48772;55.586;37.730;2022-09-16T16:18:24;8.73;;;6.82;;
62711;SDS011;48772;55.586;37.730;2022-09-16T16:20:50;9.10;;;6.35;;
62711;SDS011;48772;55.586;37.730;2022-09-16T16:23:16;13.25;;;9.73;;
62711;SDS011;48772;55.586;37.730;2022-09-16T16:25:41;15.38;;;11.05;;
62711;SDS011;48772;55.586;37.730;2022-09-16T16:28:07;9.70;;;6.70;;
62711;SDS011;48772;55.586;37.730;2022-09-16T16:30:32;12.88;;;8.85;;
62711;SDS011;48772;55.586;37.730;2022-09-16T16:32:58;14.32;;;10.73;;
62711;SDS011;48772;55.586;37.730;2022-09-16T16:35:24;16.33;;;12.55;;
62711;SDS011;48772;55.586;37.730;2022-09-16T16:37:50;10.77;;;8.45;;
62711;SDS011;48772;55.586;37.730;2022-09-16T16:40:15;10.80;;;8.15;;
62711;SDS011;48772;55.586;37.730;2022-09-16T16:42:42;16.52;;;11.43;;
62711;SDS011;48772;55.586;37.730;2022-09-16T16:45:07;15.88;;;10.80;;
62711;SDS011;48772;55.586;37.730;2022-09-16T16:47:33;11.63;;;8.27;;
62711;SDS011;48772;55.586;37.730;2022-09-16T16:49:59;11.43;;;8.55;;
62711;SDS011;48772;55.586;37.730;2022-09-16T16:52:26;12.45;;;8.43;;
62711;SDS011;48772;55.586;37.730;2022-09-16T16:54:53;10.68;;;7.72;;
62711;SDS011;48772;55.586;37.730;2022-09-16T16:57:18;10.82;;;8.27;;
62711;SDS011;48772;55.586;37.730;2022-09-16T16:59:44;8.73;;;6.18;;
62711;SDS011;48772;55.586;37.730;2022-09-16T17:02:10;12.20;;;7.70;;
62711;SDS011;48772;55.586;37.730;2022-09-16T17:04:36;10.45;;;6.95;;
62711;SDS011;48772;55.586;37.730;2022-09-16T17:07:02;12.32;;;7.45;;
62711;SDS011;48772;55.586;37.730;2022-09-16T17:09:28;8.90;;;6.68;;
62711;SDS011;48772;55.586;37.730;2022-09-16T17:14:20;9.80;;;6.70;;
62711;SDS011;48772;55.586;37.730;2022-09-16T17:16:45;9.25;;;7.00;;
62711;SDS011;48772;55.586;37.730;2022-09-16T17:19:13;7.47;;;5.25;;
62711;SDS011;48772;55.586;37.730;2022-09-16T17:21:39;5.75;;;4.65;;